Weather observations for the past three days for
Vance Brand Airport
Imperial (Metric)
Date Time (mdt) Wind (mph) Vis. (mi.) Weather Sky Cond. Temperature (ºF) Relative Humidity Wind Chill (°F) Heat Index (°F) Pressure Precipitation (in)
Air Dwpt 6 hour altimeter (in) sea level (mb) 1 hr 3 hr 6 hr
Max. Min.
05 11:55 E 3 10.00 Fair CLR 86.4 44.8 86.7 54.7 23% 83 30.11 0.0
05 11:35 E 6 5.00 Fair with Haze CLR 85.1 45 25% 82 30.11 0.0
05 11:15 E 7 10.00 Fair CLR 83.5 45.9 27% 81 30.11 0.0
05 10:55 E 7 10.00 Fair CLR 83.3 46.4 28% 81 30.11 0.0
05 10:35 E 8 10.00 Fair CLR 81.9 47.1 30% 80 30.11 0.0
05 10:15 E 7 10.00 Fair CLR 80.4 46 30% 79 30.11 0.0
05 09:55 E 7 7.00 Fair CLR 77.2 49.3 38% 78 30.11 0.0
05 09:35 SE 6 10.00 Fair CLR 78.3 45.7 32% 78 30.1 0.0
05 09:15 E 6 10.00 Fair CLR 77.2 47.8 36% 78 30.1 0.0
05 08:55 S 3 7.00 Fair CLR 75 47.1 37% 77 30.1 0.0
05 08:35 Calm 10.00 Fair CLR 72.1 46.8 41% 30.1 0.0
05 08:15 Calm 10.00 Fair CLR 68.7 47.5 47% 30.1 0.0
05 07:55 Calm 10.00 Fair CLR 65.1 45.5 49% 30.1 0.0
05 07:35 Calm 10.00 Fair CLR 61.2 46 58% 30.1 0.0
05 07:15 SW 6 10.00 Fair CLR 57.9 44.1 60% 30.1 0.0
05 06:55 W 3 10.00 Fair CLR 57.9 45.5 63% 30.09 0.0
05 06:35 Calm 10.00 Fair CLR 56.1 44.6 65% 30.08 0.0
05 06:15 W 3 10.00 Fair CLR 55.2 44.2 67% 30.08 0.0
05 05:55 Calm 10.00 Fair CLR 55.9 45.7 73.4 55 69% 30.08 0.0
05 05:35 NW 5 10.00 Fair CLR 57.2 44.4 63% 30.08 0.0
05 05:15 Calm 10.00 Fair CLR 56.3 45.1 66% 30.08 0.0
05 04:55 W 5 10.00 Fair CLR 56.7 45.1 66% 30.08 0.0
05 04:35 Calm 10.00 Fair CLR 57.6 45.1 63% 30.08 0.0
05 04:15 Calm 10.00 Fair CLR 60.1 45.9 60% 30.07 0.0
05 03:55 E 6 10.00 Fair CLR 59.5 44.4 58% 30.07 0.0
05 03:35 W 6 10.00 Fair CLR 59.7 44.6 58% 30.06 0.0
05 03:15 W 3 10.00 Fair CLR 60.4 45.1 57% 30.05 0.0
05 02:55 SW 3 10.00 Fair CLR 61.7 44.8 54% 30.06 0.0
05 02:35 Calm 10.00 Fair CLR 63.5 44.6 50% 30.05 0.0
05 02:15 Calm 10.00 Fair CLR 66 44.6 46% 30.05 0.0
05 01:55 W 5 10.00 Fair CLR 66.6 42.8 42% 30.05 0.0
05 01:35 Calm 10.00 Fair CLR 65.1 43.7 46% 30.05 0.0
05 01:15 SW 6 7.00 Fair CLR 66.4 43.7 44% 30.04 0.0
05 00:55 W 5 7.00 Fair CLR 70 41.9 36% 30.04 0.0
05 00:35 Calm 10.00 Fair CLR 70.7 41.9 35% 30.04 0.0
05 00:15 SW 5 10.00 Fair CLR 70 42.1 37% 30.04 0.0
04 23:55 NW 8 10.00 Fair CLR 72.7 41.9 90.9 71.6 33% 30.04 0.0
04 23:35 NW 7 10.00 Fair CLR 72.9 41.9 33% 30.04 0.0
04 23:15 NW 8 10.00 Fair CLR 72.7 42.4 34% 30.04 0.0
04 22:55 NW 6 10.00 Fair CLR 73 44.4 36% 30.04 0.0
04 22:35 NW 7 10.00 Fair CLR 74.1 43.7 34% 30.04 0.0
04 22:15 NW 7 10.00 Partly Cloudy SCT120 76.1 43.2 31% 77 30.05 0.0
04 21:55 NW 6 10.00 Partly Cloudy SCT120 77 43.7 31% 78 30.05 0.0
04 21:35 NW 6 10.00 Mostly Cloudy BKN120 77.4 44.6 31% 78 30.06 0.0
04 21:15 Calm 10.00 Partly Cloudy SCT120 75.4 45.3 34% 77 30.06 0.0
04 20:55 NW 3 10.00 Partly Cloudy SCT120 75.6 45.1 34% 77 30.05 0.0
04 20:35 NW 5 10.00 Partly Cloudy SCT120 73 45.5 37% 30.04 0.0
04 20:15 NW 7 10.00 Fair CLR 72.7 46.2 39% 30.03 0.0
04 19:55 Calm 10.00 Fair CLR 79 44.2 29% 79 30.02 0.0
04 19:35 E 3 10.00 Fair CLR 81.1 43.7 27% 80 30.01 0.0
04 19:15 NE 7 10.00 Fair CLR 81.9 44.1 26% 80 30.01 0.0
04 18:55 E 3 10.00 Fair CLR 82.9 42.6 24% 81 30 0.0
04 18:35 E 6 10.00 Fair CLR 86.5 41 20% 83 30 0.0
04 18:15 E 8 10.00 Fair CLR 89.6 39.2 17% 86 30 0.0
04 17:55 NE 9 10.00 Fair CLR 91.4 39.2 93.4 87.6 16% 87 30 0.0
04 17:35 NE 10 7.00 Fair CLR 92.3 38.8 15% 88 30 0.0
04 17:15 E 8 10.00 Fair CLR 92.8 37.6 14% 89 29.99 0.0
04 16:55 E 7 10.00 Fair CLR 93 37.4 14% 89 29.99 0.0
04 16:35 E 9 10.00 Fair CLR 92.7 37.4 14% 88 29.99 0.0
04 16:15 E 5 10.00 Fair CLR 92.7 36 14% 88 30 0.0
04 15:55 E 9 10.00 Fair CLR 92.3 35.4 13% 88 30 0.0
04 15:35 E 9 10.00 Fair CLR 93.2 36.3 13% 89 30 0.0
04 15:15 SE 8 10.00 Fair CLR 91.9 34.5 13% 88 30.01 0.0
04 14:55 SE 8 10.00 Fair CLR 92.8 36.7 14% 88 30.01 0.0
04 14:35 E 10 10.00 Fair CLR 92.3 36.5 14% 88 30.02 0.0
04 14:15 SE 6 10.00 Fair CLR 91.8 36.7 14% 88 30.02 0.0
04 13:55 NE 3 10.00 Fair CLR 91.4 37.6 15% 87 30.03 0.0
04 13:35 SE 5 10.00 Fair CLR 90.7 36.7 15% 87 30.03 0.0
04 13:15 SE 7 10.00 Fair CLR 90.3 38.1 16% 86 30.03 0.0
04 12:55 E 12 10.00 Fair CLR 90.3 38.1 16% 86 30.04 0.0
04 12:35 E 9 10.00 Fair CLR 89.8 37.9 16% 86 30.04 0.0
04 12:15 E 8 10.00 Fair CLR 88.9 39.4 17% 85 30.05 0.0
04 11:55 E 6 7.00 Fair CLR 87.1 40.5 87.3 49.5 19% 84 30.06 0.0
04 11:35 SE 6 10.00 Fair CLR 85.8 42.1 21% 83 30.06 0.0
04 11:15 SE 3 10.00 Fair CLR 84.2 42.3 23% 82 30.07 0.0
04 10:55 NE 3 10.00 Fair CLR 82 45.1 27% 80 30.07 0.0
04 10:35 Calm 10.00 Fair CLR 80.6 44.6 28% 79 30.07 0.0
04 10:15 E 5 10.00 Fair CLR 79.9 42.4 26% 79 30.07 0.0
04 09:55 SE 3 10.00 Fair CLR 77.4 42.6 29% 78 30.08 0.0
04 09:35 SE 5 7.00 Fair CLR 75.7 45.1 34% 77 30.07 0.0
04 09:15 Calm 10.00 Fair CLR 74.1 45.9 37% 30.07 0.0
04 08:55 Calm 7.00 Fair CLR 72.7 46.2 39% 30.07 0.0
04 08:35 Calm 10.00 Fair CLR 69.1 47.1 46% 30.07 0.0
04 08:15 Calm 10.00 Fair CLR 66.4 46 48% 30.07 0.0
04 07:55 Calm 10.00 Fair CLR 62.6 45.7 54% 30.06 0.0
04 07:35 Calm 10.00 Fair CLR 57 45.7 66% 30.06 0.0
04 07:15 W 3 10.00 Fair CLR 53.6 43.9 70% 30.05 0.0
04 06:55 Calm 10.00 Fair CLR 50.4 42.3 74% 30.04 0.0
04 06:35 W 3 10.00 Fair CLR 50 41.4 72% 30.04 0.0
04 06:15 Calm 10.00 Fair CLR 50.4 41 70% 30.04 0.0
04 05:55 W 3 10.00 Fair CLR 51.1 41.4 72 51.1 70% 30.02 0.0
04 05:35 W 3 10.00 Fair CLR 52 41.4 67% 30.02 0.0
04 05:15 Calm 10.00 Fair CLR 53.6 41.2 63% 30.02 0.0
04 04:55 Calm 10.00 Fair CLR 54.7 41.7 62% 30.02 0.0
04 04:35 Calm 7.00 Fair CLR 53.4 42.4 67% 30.01 0.0
04 04:15 S 5 10.00 Fair CLR 55.4 43.2 64% 30 0.0
04 03:55 Calm 10.00 Fair CLR 57.2 43.7 61% 30 0.0
04 03:35 Calm 10.00 Fair CLR 58.1 43.9 59% 30 0.0
04 03:15 Calm 7.00 Fair CLR 57.6 43.9 60% 30 0.0
04 02:55 Calm 7.00 Fair CLR 59.7 44.6 58% 30 0.0
04 02:35 W 5 10.00 Fair CLR 57.2 44.4 63% 30 0.0
04 02:15 Calm 10.00 Fair CLR 58.8 45 60% 30 0.0
04 01:55 NW 3 10.00 Fair CLR 59.2 43.9 57% 30 0.0
04 01:35 NW 7 7.00 Fair CLR 59.7 44.1 56% 30 0.0
04 01:15 Calm 10.00 Fair CLR 64.2 43.3 47% 30 0.0
04 00:55 S 3 7.00 Fair CLR 64.2 44.2 48% 30 0.0
04 00:35 E 5 5.00 Fair with Haze CLR 68.7 42.8 39% 30 0.0
04 00:15 SE 6 10.00 Fair CLR 66.7 43.9 44% 30 0.0
03 23:55 NW 3 10.00 Fair CLR 71.6 41.9 88.9 69.6 34% 29.99 0.0
03 23:35 NW 6 10.00 Fair CLR 70.3 42.3 36% 29.98 0.0
03 23:15 NW 8 10.00 Fair CLR 71.1 41.9 35% 29.97 0.0
03 22:55 NW 7 10.00 Fair CLR 71.2 42.4 35% 29.98 0.0
03 22:35 NW 8 7.00 Fair CLR 72.5 42.6 34% 29.98 0.0
03 22:15 NW 7 7.00 Fair CLR 74.8 43 32% 29.98 0.0
03 21:55 NW 9 10.00 Fair CLR 76.5 42.6 30% 77 29.99 0.0
03 21:35 N 9 7.00 Fair CLR 75.7 43 31% 77 29.99 0.0
03 21:15 NW 8 10.00 Fair CLR 70.9 44.8 39% 29.99 0.0
03 20:55 NW 6 10.00 Fair CLR 70 45.5 42% 29.99 0.0
03 20:35 NW 3 10.00 Fair CLR 71.1 45.5 40% 29.98 0.0
03 20:15 NW 3 10.00 Fair CLR 75 45 34% 77 29.98 0.0
03 19:55 N 5 10.00 Fair CLR 78.4 43.2 29% 78 29.97 0.0
03 19:35 N 6 10.00 Fair CLR 80.6 42.4 26% 79 29.97 0.0
03 19:15 NE 7 10.00 Fair CLR 82.8 41.5 23% 81 29.97 0.0
03 18:55 NE 7 10.00 Fair CLR 84.2 40.3 21% 81 29.96 0.0
03 18:35 E 8 10.00 Fair CLR 84.4 39.7 21% 82 29.96 0.0
03 18:15 NE 5 10.00 Fair CLR 86.2 37.4 18% 83 29.96 0.0
03 17:55 E 10 7.00 Fair CLR 89.6 38.7 90.5 85.6 17% 86 29.96 0.0
03 17:35 E 5 10.00 Fair CLR 89.8 37.6 16% 86 29.96 0.0
03 17:15 NE 5 10.00 Fair CLR 90 36.9 15% 86 29.96 0.0
03 16:55 NE 7 10.00 Fair CLR 89.8 37.4 16% 86 29.96 0.0
03 16:35 NE 9 10.00 Fair CLR 89.6 37.2 16% 86 29.96 0.0
03 16:15 SE 6 10.00 Fair CLR 90.1 36.5 15% 86 29.97 0.0
03 15:55 E 3 10.00 Fair CLR 90 37.8 16% 86 29.98 0.0
03 15:35 E 6 10.00 Fair CLR 89.2 36.9 16% 85 29.98 0.0
03 15:15 Calm 10.00 Fair CLR 88.7 36.7 16% 85 29.99 0.0
03 14:55 SE 7 10.00 Fair CLR 88.3 37.8 17% 85 29.99 0.0
03 14:35 SE 5 10.00 Fair CLR 89.1 38.1 17% 85 30 0.0
03 14:15 SE 9 10.00 Fair CLR 88.9 38.8 17% 85 30 0.0
03 13:55 E 9 10.00 Fair CLR 88 38.8 18% 84 30.01 0.0
03 13:35 E 8 10.00 Fair CLR 87.1 39.6 19% 84 30.01 0.0
03 13:15 SE 12 G 17 7.00 Fair CLR 87.1 40.1 19% 84 30.02 0.0
03 12:55 SE 10 10.00 Fair CLR 87.6 40.6 19% 84 30.02 0.0
03 12:35 E 10 10.00 Fair CLR 86.7 40.3 19% 83 30.03 0.0
03 12:15 E 6 10.00 Fair CLR 86.2 38.7 19% 83 30.03 0.0
03 11:55 E 5 10.00 Fair CLR 85.6 38.7 85.6 52.5 19% 82 30.04 0.0
03 11:35 N 12 10.00 Fair CLR 85.1 39.9 20% 82 30.04 0.0
03 11:15 NW 12 G 20 10.00 Fair CLR 84.4 39.2 20% 82 30.04 0.0
03 10:55 NW 14 G 17 7.00 Fair CLR 85.3 40.1 20% 82 30.04 0.0
03 10:35 W 14 G 21 10.00 Fair CLR 83.1 39.4 21% 81 30.05 0.0
03 10:15 W 15 G 18 10.00 Fair CLR 81.9 39.9 22% 80 30.05 0.0
03 09:55 E 3 10.00 Fair CLR 76.8 50.5 40% 78 30.05 0.0
03 09:35 E 6 7.00 Fair CLR 75.9 49.6 40% 78 30.05 0.0
03 09:15 E 6 7.00 Fair CLR 74.8 51.1 43% 30.04 0.0
03 08:55 S 5 10.00 Fair CLR 72.7 46.4 39% 30.05 0.0
03 08:35 NW 5 10.00 Fair CLR 67.1 47.8 50% 30.05 0.0
03 08:15 Calm 10.00 Fair CLR 65.1 46.9 52% 30.05 0.0
03 07:55 Calm 10.00 Fair CLR 61.7 47.5 60% 30.06 0.0
03 07:35 E 6 10.00 Fair CLR 59.9 47.5 64% 30.06 0.0
03 07:15 Calm 10.00 Fair CLR 60.1 45.9 60% 30.06 0.0
03 06:55 SW 3 10.00 Fair CLR 59.2 44.6 59% 30.04 0.0
03 06:35 W 6 10.00 Fair CLR 55.6 44.8 67% 30.04 0.0
03 06:15 Calm 10.00 Fair CLR 55.6 45.5 69% 30.03 0.0
03 05:55 SE 3 7.00 Fair CLR 52.5 45.1 65.3 51.8 76% 30.03 0.0
03 05:35 Calm 10.00 Fair CLR 54.9 45.5 71% 30.03 0.0
03 05:15 S 3 10.00 Fair CLR 55.4 46.6 72% 30.03 0.0
03 04:55 SW 3 10.00 Fair CLR 54.5 46.4 74% 30.03 0.0
03 04:35 SW 3 10.00 Fair CLR 55.2 46.4 72% 30.03 0.0
03 04:15 Calm 7.00 Fair CLR 57.6 46.6 67% 30.03 0.0
03 03:55 W 3 7.00 Fair CLR 55.4 46.2 71% 30.04 0.0
03 03:35 Calm 7.00 Fair CLR 57.7 47.8 70% 30.04 0.0
03 03:15 Calm 10.00 Fair CLR 58.1 48.2 70% 30.04 0.0
03 02:55 Calm 7.00 Fair CLR 59 47.5 66% 30.04 0.0
03 02:35 Calm 3.00 Fair with Haze CLR 59.7 47.8 65% 30.03 0.0
03 02:15 Calm 7.00 Fair CLR 60.1 48.6 66% 30.03 0.0
03 01:55 Calm 10.00 Fair CLR 58.3 49.3 72% 30.04 0.0
03 01:35 Calm 10.00 Fair CLR 62.6 49.1 62% 30.03 0.0
03 01:15 Calm 7.00 Fair CLR 59.4 51.1 74% 30.04 0.0
03 00:55 SW 3 7.00 Fair CLR 65.1 50.9 60% 30.04 0.0
03 00:35 Calm 7.00 Fair CLR 65.1 51.1 61% 30.04 0.0
03 00:15 SW 5 7.00 Fair CLR 63.9 52.3 66% 30.04 0.0
02 23:55 W 6 10.00 Fair CLR 63.5 52.2 81.7 62.6 67% 30.04 0.0
02 23:35 W 3 7.00 Fair CLR 62.8 51.4 67% 30.04 0.0
02 23:15 Calm 7.00 Partly Cloudy SCT120 64.2 51.8 64% 30.05 0.0
02 22:55 Calm 7.00 Mostly Cloudy BKN120 64.4 51.3 63% 30.05 0.0
02 22:35 Calm 10.00 Partly Cloudy SCT120 66.2 50.5 57% 30.06 0.0
02 22:15 Calm 10.00 Fair CLR 66 50.9 58% 30.07 0.0
02 21:55 Calm 10.00 Fair CLR 68.4 50.2 52% 30.04 0.0
02 21:35 SE 3 10.00 Partly Cloudy SCT110 70.7 50.4 49% 30.06 0.0
02 21:15 Calm 10.00 Partly Cloudy SCT120 68.5 50.4 52% 30.04 0.0
02 20:55 N 6 10.00 Fair CLR 69.8 50.2 50% 30.04 0.0
02 20:35 Calm 10.00 Fair CLR 71.8 49.5 45% 30.04 0.0
02 20:15 N 9 10.00 Partly Cloudy SCT120 73.4 49.1 42% 30.03 0.0
02 19:55 N 9 10.00 Partly Cloudy SCT120 75 48.9 40% 77 30.03 0.0
02 19:35 NE 8 10.00 Fair CLR 75.6 47.5 37% 78 30.01 0.0
02 19:15 NE 7 10.00 Fair CLR 77 48.2 36% 78 30.01 0.0
02 18:55 N 7 10.00 Fair CLR 77.5 46.9 34% 78 30.01 0.0
02 18:35 N 6 7.00 Fair CLR 80.4 46.6 30% 79 30.01 0.0
02 18:15 N 6 10.00 Fair CLR 80.8 47.1 31% 80 30.01 0.0
02 17:55 NW 10 G 17 10.00 Fair CLR 81.9 46.4 89.6 80.6 29% 80 30.01 0.0
02 17:35 W 17 G 21 10.00 Light Rain SCT025 SCT043 BKN110 82.8 45.1 27% 81 30.02 0.0
02 17:15 SW 18 G 40 10.00 Light Rain SCT025 SCT070 OVC110 80.6 42.4 26% 79 30.03 0.0
02 16:55 S 5 10.00 Overcast OVC110 85.3 43 23% 82 30 0.0
02 16:35 E 6 10.00 Mostly Cloudy BKN120 86.9 41.7 20% 84 29.99 0.0
02 16:15 E 5 10.00 Mostly Cloudy BKN120 88.3 41.9 20% 85 29.98 0.0
02 15:55 E 8 G 16 10.00 Partly Cloudy SCT120 88.5 40.3 18% 85 29.99 0.0
02 15:35 SE 6 10.00 Fair CLR 88.2 40.8 19% 85 30 0.0
02 15:15 SE 3 10.00 Fair CLR 88.2 40.1 18% 85 30 0.0
02 14:55 E 6 10.00 Fair CLR 88.3 41.2 19% 85 30.01 0.0
02 14:35 S 6 10.00 Fair CLR 87.4 40.6 19% 84 30.03 0.0
02 14:15 E 7 10.00 Fair CLR 87.4 41 20% 84 30.04 0.0
02 13:55 SE 7 10.00 Fair CLR 86.9 40.6 20% 84 30.05 0.0
Date Time (mdt) Wind (mph) Vis. (mi.) Weather Sky Cond. Air Dwpt Max. Min. Relative Humidity Wind Chill (°F) Heat Index (°F) altimeter (in) sea level (mb) 1 hr 3 hr 6 hr
6 hour
Temperature (ºF) Pressure Precipitation (in)